LPA727 USNN-USSS
Flight info
| Callsign | LPA727 |
|---|---|
| Flight time | 1h 32m |
| Altitude | 38000 |
| Route | K0843F380 KUPAD1P KUPAD R370 TODES T764 REPSA REPSA6S |
| Aircraft | A320/M-SDE3FGHIRWY/LB1 |
Departure
| Time | 2026-04-23 18:27 |
|---|---|
| Airport | Nizhnevartovsk Airport (USNN) |
Arrival
| Time | 2026-04-23 19:59 |
|---|---|
| Airport | Koltsovo Airport (USSS) |
| Time | Latitude | Longitude | Altitude | Speed | Heading |
|---|---|---|---|---|---|
| 2026-04-23 18:10 | 60.95131 | 76.49203 | 198 ft | 0 kts | 132° |
| 2026-04-23 18:21 | 60.95120 | 76.49236 | 193 ft | 4 kts | 115° |
| 2026-04-23 18:21 | 60.95123 | 76.49295 | 194 ft | 8 kts | 63° |
| 2026-04-23 18:22 | 60.95195 | 76.49433 | 198 ft | 16 kts | 40° |
| 2026-04-23 18:22 | 60.95292 | 76.49604 | 198 ft | 19 kts | 42° |
| 2026-04-23 18:22 | 60.95387 | 76.49783 | 196 ft | 15 kts | 43° |
| 2026-04-23 18:22 | 60.95439 | 76.49859 | 195 ft | 7 kts | 5° |
| 2026-04-23 18:23 | 60.95464 | 76.49828 | 188 ft | 8 kts | 319° |
| 2026-04-23 18:23 | 60.95569 | 76.49863 | 191 ft | 12 kts | 43° |
| 2026-04-23 18:24 | 60.95698 | 76.50101 | 196 ft | 16 kts | 41° |
| 2026-04-23 18:24 | 60.95781 | 76.50254 | 193 ft | 15 kts | 40° |
| 2026-04-23 18:24 | 60.95853 | 76.50297 | 186 ft | 0 kts | 355° |
| 2026-04-23 18:25 | 60.95935 | 76.50288 | 195 ft | 11 kts | 354° |
| 2026-04-23 18:25 | 60.95979 | 76.50201 | 189 ft | 10 kts | 282° |
| 2026-04-23 18:25 | 60.95948 | 76.50101 | 196 ft | 0 kts | 221° |
| 2026-04-23 18:25 | 60.95946 | 76.50099 | 197 ft | 0 kts | 220° |
| 2026-04-23 18:26 | 60.95942 | 76.50092 | 193 ft | 3 kts | 220° |
| 2026-04-23 18:26 | 60.95786 | 76.49820 | 186 ft | 72 kts | 223° |
| 2026-04-23 18:26 | 60.95209 | 76.48717 | 196 ft | 150 kts | 222° |
| 2026-04-23 18:26 | 60.94344 | 76.47092 | 513 ft | 175 kts | 223° |
| 2026-04-23 18:27 | 60.93444 | 76.45416 | 1252 ft | 173 kts | 225° |
| 2026-04-23 18:27 | 60.92557 | 76.43782 | 2002 ft | 173 kts | 226° |
| 2026-04-23 18:27 | 60.91622 | 76.42058 | 2376 ft | 194 kts | 226° |
| 2026-04-23 18:27 | 60.90560 | 76.40085 | 2794 ft | 218 kts | 226° |
| 2026-04-23 18:28 | 60.89399 | 76.37833 | 3328 ft | 236 kts | 233° |
| 2026-04-23 18:28 | 60.88778 | 76.34758 | 4184 ft | 237 kts | 264° |
| 2026-04-23 18:28 | 60.88763 | 76.31363 | 5175 ft | 239 kts | 274° |
| 2026-04-23 18:28 | 60.88933 | 76.27936 | 6118 ft | 243 kts | 276° |
| 2026-04-23 18:29 | 60.89132 | 76.24463 | 6991 ft | 246 kts | 275° |
| 2026-04-23 18:29 | 60.89306 | 76.20956 | 7909 ft | 248 kts | 274° |
| 2026-04-23 18:29 | 60.89446 | 76.17413 | 8815 ft | 250 kts | 272° |
| 2026-04-23 18:29 | 60.89559 | 76.13825 | 9707 ft | 253 kts | 272° |
| 2026-04-23 18:30 | 60.89653 | 76.10120 | 10181 ft | 270 kts | 271° |
| 2026-04-23 18:30 | 60.89740 | 76.06118 | 10559 ft | 288 kts | 271° |
| 2026-04-23 18:30 | 60.89824 | 76.01961 | 11275 ft | 293 kts | 271° |
| 2026-04-23 18:30 | 60.89902 | 75.97760 | 12084 ft | 296 kts | 271° |
| 2026-04-23 18:31 | 60.89977 | 75.93517 | 12903 ft | 298 kts | 270° |
| 2026-04-23 18:31 | 60.90047 | 75.89246 | 13689 ft | 300 kts | 270° |
| 2026-04-23 18:31 | 60.90118 | 75.84946 | 14403 ft | 302 kts | 270° |
| 2026-04-23 18:31 | 60.90190 | 75.80634 | 15113 ft | 304 kts | 270° |
| 2026-04-23 18:32 | 60.90262 | 75.76272 | 15827 ft | 306 kts | 270° |
| 2026-04-23 18:32 | 60.90333 | 75.71883 | 16547 ft | 308 kts | 270° |
| 2026-04-23 18:32 | 60.90399 | 75.67488 | 17240 ft | 310 kts | 269° |
| 2026-04-23 18:32 | 60.90463 | 75.63101 | 17941 ft | 311 kts | 269° |
| 2026-04-23 18:33 | 60.90528 | 75.58633 | 18536 ft | 314 kts | 269° |
| 2026-04-23 18:33 | 60.90546 | 75.54135 | 19114 ft | 316 kts | 264° |
| 2026-04-23 18:33 | 60.90349 | 75.49628 | 19691 ft | 318 kts | 263° |
| 2026-04-23 18:33 | 60.90144 | 75.45082 | 20258 ft | 321 kts | 263° |
| 2026-04-23 18:34 | 60.89936 | 75.40489 | 20831 ft | 324 kts | 263° |
| 2026-04-23 18:34 | 60.89725 | 75.35863 | 21409 ft | 327 kts | 263° |
| 2026-04-23 18:34 | 60.89507 | 75.31185 | 21972 ft | 330 kts | 263° |
| 2026-04-23 18:34 | 60.89285 | 75.26476 | 22541 ft | 333 kts | 263° |
| 2026-04-23 18:35 | 60.89057 | 75.21718 | 23092 ft | 336 kts | 263° |
| 2026-04-23 18:35 | 60.88827 | 75.16927 | 23567 ft | 339 kts | 263° |
| 2026-04-23 18:35 | 60.88596 | 75.12081 | 23981 ft | 343 kts | 263° |
| 2026-04-23 18:35 | 60.88363 | 75.07185 | 24383 ft | 346 kts | 263° |
| 2026-04-23 18:36 | 60.88124 | 75.02248 | 24771 ft | 350 kts | 263° |
| 2026-04-23 18:36 | 60.87880 | 74.97247 | 25154 ft | 354 kts | 263° |
| 2026-04-23 18:36 | 60.87635 | 74.92265 | 25535 ft | 357 kts | 263° |
| 2026-04-23 18:36 | 60.87381 | 74.87165 | 25906 ft | 361 kts | 263° |
| 2026-04-23 18:37 | 60.87123 | 74.82026 | 26266 ft | 364 kts | 263° |
| 2026-04-23 18:37 | 60.86862 | 74.76831 | 26620 ft | 367 kts | 263° |
| 2026-04-23 18:37 | 60.86594 | 74.71588 | 26971 ft | 371 kts | 263° |
| 2026-04-23 18:37 | 60.86322 | 74.66288 | 27320 ft | 374 kts | 263° |
| 2026-04-23 18:38 | 60.86047 | 74.60964 | 27658 ft | 377 kts | 263° |
| 2026-04-23 18:38 | 60.85766 | 74.55584 | 27998 ft | 381 kts | 263° |
| 2026-04-23 18:38 | 60.85479 | 74.50150 | 28327 ft | 384 kts | 263° |
| 2026-04-23 18:38 | 60.85188 | 74.44692 | 28650 ft | 387 kts | 263° |
| 2026-04-23 18:39 | 60.84894 | 74.39181 | 28966 ft | 390 kts | 263° |
| 2026-04-23 18:39 | 60.84594 | 74.33612 | 29281 ft | 393 kts | 263° |
| 2026-04-23 18:39 | 60.84289 | 74.28024 | 29582 ft | 396 kts | 263° |
| 2026-04-23 18:39 | 60.83984 | 74.22456 | 29858 ft | 399 kts | 263° |
| 2026-04-23 18:40 | 60.83666 | 74.16704 | 30100 ft | 402 kts | 263° |
| 2026-04-23 18:40 | 60.83348 | 74.10991 | 30340 ft | 405 kts | 263° |
| 2026-04-23 18:40 | 60.83033 | 74.05325 | 30577 ft | 407 kts | 263° |
| 2026-04-23 18:40 | 60.82711 | 73.99546 | 30804 ft | 409 kts | 263° |
| 2026-04-23 18:41 | 60.82386 | 73.93738 | 31032 ft | 412 kts | 263° |
| 2026-04-23 18:41 | 60.82056 | 73.87894 | 31274 ft | 413 kts | 263° |
| 2026-04-23 18:41 | 60.81720 | 73.82048 | 31592 ft | 413 kts | 262° |
| 2026-04-23 18:41 | 60.81378 | 73.76197 | 31907 ft | 413 kts | 262° |
| 2026-04-23 18:42 | 60.81031 | 73.70354 | 32212 ft | 413 kts | 262° |
| 2026-04-23 18:42 | 60.80682 | 73.64500 | 32513 ft | 414 kts | 262° |
| 2026-04-23 18:42 | 60.80332 | 73.58657 | 32812 ft | 414 kts | 262° |
| 2026-04-23 18:42 | 60.79981 | 73.52804 | 33117 ft | 414 kts | 262° |
| 2026-04-23 18:43 | 60.79628 | 73.46948 | 33423 ft | 414 kts | 262° |
| 2026-04-23 18:43 | 60.79272 | 73.41087 | 33735 ft | 415 kts | 262° |
| 2026-04-23 18:43 | 60.78915 | 73.35225 | 33990 ft | 415 kts | 262° |
| 2026-04-23 18:43 | 60.78562 | 73.29446 | 34229 ft | 415 kts | 262° |
| 2026-04-23 18:44 | 60.78198 | 73.23575 | 34465 ft | 415 kts | 262° |
| 2026-04-23 18:44 | 60.77829 | 73.17711 | 34695 ft | 416 kts | 261° |
| 2026-04-23 18:44 | 60.77457 | 73.11843 | 34905 ft | 416 kts | 261° |
| 2026-04-23 18:44 | 60.77083 | 73.05966 | 35132 ft | 416 kts | 261° |
| 2026-04-23 18:45 | 60.76707 | 73.00085 | 35346 ft | 417 kts | 261° |
| 2026-04-23 18:45 | 60.76326 | 72.94211 | 35558 ft | 417 kts | 261° |
| 2026-04-23 18:45 | 60.75942 | 72.88320 | 35759 ft | 417 kts | 261° |
| 2026-04-23 18:45 | 60.75556 | 72.82444 | 35965 ft | 418 kts | 261° |
| 2026-04-23 18:46 | 60.75166 | 72.76555 | 36164 ft | 418 kts | 261° |
| 2026-04-23 18:46 | 60.74796 | 72.70662 | 36355 ft | 418 kts | 262° |
| 2026-04-23 18:46 | 60.74497 | 72.64740 | 36540 ft | 419 kts | 264° |
| 2026-04-23 18:46 | 60.74248 | 72.58888 | 36739 ft | 419 kts | 264° |
| 2026-04-23 18:47 | 60.74010 | 72.52862 | 36899 ft | 419 kts | 264° |
| 2026-04-23 18:47 | 60.73777 | 72.47006 | 37062 ft | 420 kts | 264° |
| 2026-04-23 18:47 | 60.73509 | 72.41051 | 37223 ft | 419 kts | 261° |
| 2026-04-23 18:47 | 60.72870 | 72.35246 | 37377 ft | 419 kts | 255° |
| 2026-04-23 18:48 | 60.72144 | 72.29473 | 37518 ft | 419 kts | 255° |
| 2026-04-23 18:48 | 60.71418 | 72.23718 | 37688 ft | 419 kts | 255° |
| 2026-04-23 18:48 | 60.70689 | 72.17954 | 37745 ft | 419 kts | 255° |
| 2026-04-23 18:49 | 60.69221 | 72.06428 | 37746 ft | 419 kts | 255° |
| 2026-04-23 18:49 | 60.67732 | 71.94914 | 37745 ft | 419 kts | 255° |
| 2026-04-23 18:50 | 60.66487 | 71.85371 | 37747 ft | 419 kts | 255° |
| 2026-04-23 18:50 | 60.64720 | 71.71955 | 37750 ft | 419 kts | 255° |
| 2026-04-23 18:51 | 60.63203 | 71.60471 | 37759 ft | 420 kts | 255° |
| 2026-04-23 18:51 | 60.61693 | 71.49063 | 37765 ft | 420 kts | 255° |
| 2026-04-23 18:52 | 60.60153 | 71.37574 | 37767 ft | 420 kts | 254° |
| 2026-04-23 18:52 | 60.58596 | 71.26105 | 37771 ft | 420 kts | 254° |
| 2026-04-23 18:53 | 60.57033 | 71.14635 | 37775 ft | 421 kts | 254° |
| 2026-04-23 18:53 | 60.55730 | 71.05105 | 37776 ft | 420 kts | 254° |
| 2026-04-23 18:54 | 60.53896 | 70.91808 | 37769 ft | 420 kts | 254° |
| 2026-04-23 18:54 | 60.52310 | 70.80382 | 37776 ft | 420 kts | 254° |
| 2026-04-23 18:55 | 60.50983 | 70.70902 | 37769 ft | 420 kts | 253° |
| 2026-04-23 18:55 | 60.49375 | 70.59498 | 37762 ft | 420 kts | 253° |
| 2026-04-23 18:56 | 60.47760 | 70.48110 | 37758 ft | 420 kts | 253° |
| 2026-04-23 18:56 | 60.46136 | 70.36750 | 37761 ft | 420 kts | 253° |
| 2026-04-23 18:57 | 60.44497 | 70.25384 | 37755 ft | 420 kts | 253° |
| 2026-04-23 18:57 | 60.42855 | 70.14041 | 37753 ft | 420 kts | 253° |
| 2026-04-23 18:58 | 60.41208 | 70.02711 | 37746 ft | 419 kts | 253° |
| 2026-04-23 18:58 | 60.39559 | 69.91475 | 37741 ft | 419 kts | 253° |
| 2026-04-23 18:59 | 60.37890 | 69.80174 | 37732 ft | 419 kts | 253° |
| 2026-04-23 18:59 | 60.36202 | 69.68891 | 37730 ft | 419 kts | 253° |
| 2026-04-23 19:00 | 60.33854 | 69.58189 | 37730 ft | 418 kts | 237° |
| 2026-04-23 19:00 | 60.30612 | 69.48447 | 37730 ft | 419 kts | 237° |
| 2026-04-23 19:01 | 60.27377 | 69.38763 | 37728 ft | 419 kts | 237° |
| 2026-04-23 19:01 | 60.24098 | 69.28972 | 37718 ft | 419 kts | 237° |
| 2026-04-23 19:02 | 60.20857 | 69.19319 | 37724 ft | 419 kts | 237° |
| 2026-04-23 19:02 | 60.17587 | 69.09620 | 37733 ft | 419 kts | 237° |
| 2026-04-23 19:03 | 60.14306 | 68.99936 | 37736 ft | 419 kts | 236° |
| 2026-04-23 19:03 | 60.11016 | 68.90267 | 37732 ft | 419 kts | 236° |
| 2026-04-23 19:04 | 60.07746 | 68.80690 | 37734 ft | 419 kts | 236° |
| 2026-04-23 19:04 | 60.04443 | 68.71070 | 37732 ft | 419 kts | 236° |
| 2026-04-23 19:05 | 60.01130 | 68.61481 | 37734 ft | 419 kts | 236° |
| 2026-04-23 19:05 | 59.97818 | 68.51909 | 37730 ft | 419 kts | 236° |
| 2026-04-23 19:06 | 59.94496 | 68.42352 | 37730 ft | 419 kts | 236° |
| 2026-04-23 19:06 | 59.91172 | 68.32820 | 37729 ft | 419 kts | 236° |
| 2026-04-23 19:07 | 59.87858 | 68.23370 | 37730 ft | 419 kts | 236° |
| 2026-04-23 19:07 | 59.84493 | 68.13828 | 37727 ft | 419 kts | 235° |
| 2026-04-23 19:08 | 59.81162 | 68.04421 | 37732 ft | 419 kts | 235° |
| 2026-04-23 19:08 | 59.77807 | 67.94968 | 37726 ft | 418 kts | 235° |
| 2026-04-23 19:09 | 59.74439 | 67.85537 | 37727 ft | 418 kts | 235° |
| 2026-04-23 19:09 | 59.71074 | 67.76135 | 37727 ft | 418 kts | 235° |
| 2026-04-23 19:10 | 59.67697 | 67.66733 | 37727 ft | 418 kts | 235° |
| 2026-04-23 19:10 | 59.64311 | 67.57356 | 37726 ft | 419 kts | 234° |
| 2026-04-23 19:11 | 59.60937 | 67.48068 | 37730 ft | 419 kts | 234° |
| 2026-04-23 19:11 | 59.57530 | 67.38710 | 37728 ft | 419 kts | 234° |
| 2026-04-23 19:12 | 59.54705 | 67.30958 | 37722 ft | 419 kts | 234° |
| 2026-04-23 19:12 | 59.50716 | 67.20061 | 37725 ft | 419 kts | 234° |
| 2026-04-23 19:13 | 59.47292 | 67.10770 | 37722 ft | 419 kts | 234° |
| 2026-04-23 19:13 | 59.43866 | 67.01505 | 37720 ft | 419 kts | 234° |
| 2026-04-23 19:14 | 59.40431 | 66.92260 | 37716 ft | 419 kts | 234° |
| 2026-04-23 19:14 | 59.37011 | 66.83105 | 37708 ft | 419 kts | 234° |
| 2026-04-23 19:15 | 59.33600 | 66.73857 | 37704 ft | 419 kts | 235° |
| 2026-04-23 19:15 | 59.30252 | 66.64534 | 37704 ft | 419 kts | 235° |
| 2026-04-23 19:16 | 59.26899 | 66.55209 | 37701 ft | 419 kts | 235° |
| 2026-04-23 19:16 | 59.23528 | 66.45918 | 37702 ft | 419 kts | 234° |
| 2026-04-23 19:17 | 59.18428 | 66.32049 | 37698 ft | 419 kts | 234° |
| 2026-04-23 19:17 | 59.15041 | 66.22873 | 37693 ft | 419 kts | 234° |
| 2026-04-23 19:18 | 59.11636 | 66.13651 | 37695 ft | 419 kts | 234° |
| 2026-04-23 19:18 | 59.08220 | 66.04440 | 37689 ft | 419 kts | 234° |
| 2026-04-23 19:19 | 59.03081 | 65.90664 | 37682 ft | 420 kts | 234° |
| 2026-04-23 19:20 | 58.97927 | 65.76930 | 37678 ft | 420 kts | 234° |
| 2026-04-23 19:20 | 58.94504 | 65.67856 | 37676 ft | 420 kts | 234° |
| 2026-04-23 19:21 | 58.89324 | 65.54174 | 37665 ft | 420 kts | 233° |
| 2026-04-23 19:22 | 58.85872 | 65.45077 | 37664 ft | 420 kts | 233° |
| 2026-04-23 19:22 | 58.80668 | 65.31487 | 37658 ft | 420 kts | 233° |
| 2026-04-23 19:23 | 58.77192 | 65.22445 | 37657 ft | 420 kts | 233° |
| 2026-04-23 19:24 | 58.71990 | 65.08956 | 37653 ft | 419 kts | 233° |
| 2026-04-23 19:24 | 58.66762 | 64.95496 | 37649 ft | 419 kts | 233° |
| 2026-04-23 19:25 | 58.59742 | 64.77594 | 37641 ft | 419 kts | 233° |
| 2026-04-23 19:26 | 58.54387 | 64.64359 | 37635 ft | 419 kts | 232° |
| 2026-04-23 19:27 | 58.45389 | 64.42449 | 37631 ft | 419 kts | 232° |
| 2026-04-23 19:28 | 58.38200 | 64.25017 | 37627 ft | 419 kts | 232° |
| 2026-04-23 19:29 | 58.32779 | 64.11957 | 37626 ft | 419 kts | 231° |
| 2026-04-23 19:30 | 58.27336 | 63.98944 | 37620 ft | 419 kts | 231° |
| 2026-04-23 19:31 | 58.21714 | 63.86210 | 37621 ft | 419 kts | 229° |
| 2026-04-23 19:31 | 58.17909 | 63.77835 | 37617 ft | 420 kts | 229° |
| 2026-04-23 19:32 | 58.14110 | 63.69436 | 37619 ft | 420 kts | 230° |
| 2026-04-23 19:32 | 58.10320 | 63.61042 | 37615 ft | 420 kts | 230° |
| 2026-04-23 19:33 | 58.06591 | 63.52642 | 37617 ft | 420 kts | 230° |
| 2026-04-23 19:33 | 58.04732 | 63.48386 | 37380 ft | 421 kts | 230° |
| 2026-04-23 19:33 | 58.00990 | 63.39828 | 36129 ft | 418 kts | 230° |
| 2026-04-23 19:34 | 57.99140 | 63.35623 | 35635 ft | 414 kts | 230° |
| 2026-04-23 19:34 | 57.97301 | 63.31467 | 35141 ft | 411 kts | 230° |
| 2026-04-23 19:34 | 57.93664 | 63.23286 | 34156 ft | 404 kts | 230° |
| 2026-04-23 19:35 | 57.91862 | 63.19254 | 33677 ft | 401 kts | 230° |
| 2026-04-23 19:35 | 57.90071 | 63.15250 | 33129 ft | 397 kts | 230° |
| 2026-04-23 19:35 | 57.88308 | 63.11303 | 32656 ft | 392 kts | 230° |
| 2026-04-23 19:35 | 57.86560 | 63.07396 | 32183 ft | 388 kts | 230° |
| 2026-04-23 19:36 | 57.84835 | 63.03546 | 31732 ft | 383 kts | 230° |
| 2026-04-23 19:36 | 57.83130 | 62.99750 | 31267 ft | 379 kts | 229° |
| 2026-04-23 19:36 | 57.81433 | 62.95988 | 30817 ft | 375 kts | 229° |
| 2026-04-23 19:36 | 57.79757 | 62.92268 | 30381 ft | 371 kts | 229° |
| 2026-04-23 19:37 | 57.78096 | 62.88586 | 29953 ft | 368 kts | 229° |
| 2026-04-23 19:37 | 57.76454 | 62.84954 | 29502 ft | 364 kts | 229° |
| 2026-04-23 19:37 | 57.74844 | 62.81398 | 29064 ft | 359 kts | 229° |
| 2026-04-23 19:37 | 57.73237 | 62.77855 | 28645 ft | 354 kts | 229° |
| 2026-04-23 19:38 | 57.71604 | 62.74323 | 27706 ft | 363 kts | 229° |
| 2026-04-23 19:38 | 57.69944 | 62.70819 | 27266 ft | 358 kts | 228° |
| 2026-04-23 19:38 | 57.68285 | 62.67365 | 26861 ft | 354 kts | 228° |
| 2026-04-23 19:38 | 57.66646 | 62.63969 | 26466 ft | 349 kts | 228° |
| 2026-04-23 19:39 | 57.65026 | 62.60614 | 26057 ft | 345 kts | 228° |
| 2026-04-23 19:39 | 57.63433 | 62.57302 | 25649 ft | 341 kts | 228° |
| 2026-04-23 19:39 | 57.61855 | 62.54015 | 25235 ft | 338 kts | 228° |
| 2026-04-23 19:39 | 57.60291 | 62.50761 | 24818 ft | 335 kts | 228° |
| 2026-04-23 19:40 | 57.58741 | 62.47541 | 24406 ft | 332 kts | 228° |
| 2026-04-23 19:40 | 57.57198 | 62.44338 | 23979 ft | 331 kts | 228° |
| 2026-04-23 19:40 | 57.55665 | 62.41163 | 23557 ft | 329 kts | 228° |
| 2026-04-23 19:40 | 57.54156 | 62.38041 | 23133 ft | 327 kts | 228° |
| 2026-04-23 19:41 | 57.52634 | 62.34890 | 22652 ft | 325 kts | 228° |
| 2026-04-23 19:41 | 57.51129 | 62.31780 | 22242 ft | 322 kts | 228° |
| 2026-04-23 19:41 | 57.49635 | 62.28698 | 21838 ft | 319 kts | 228° |
| 2026-04-23 19:41 | 57.48157 | 62.25650 | 21438 ft | 316 kts | 227° |
| 2026-04-23 19:42 | 57.46691 | 62.22633 | 21045 ft | 313 kts | 227° |
| 2026-04-23 19:42 | 57.45231 | 62.19632 | 20654 ft | 311 kts | 227° |
| 2026-04-23 19:42 | 57.43785 | 62.16663 | 20271 ft | 309 kts | 227° |
| 2026-04-23 19:42 | 57.42347 | 62.13721 | 19889 ft | 307 kts | 227° |
| 2026-04-23 19:43 | 57.40915 | 62.10796 | 19507 ft | 305 kts | 227° |
| 2026-04-23 19:43 | 57.39490 | 62.07890 | 19132 ft | 304 kts | 227° |
| 2026-04-23 19:43 | 57.38090 | 62.05036 | 18763 ft | 302 kts | 227° |
| 2026-04-23 19:43 | 57.36677 | 62.02154 | 18390 ft | 301 kts | 227° |
| 2026-04-23 19:44 | 57.35268 | 61.99283 | 18009 ft | 300 kts | 227° |
| 2026-04-23 19:44 | 57.33865 | 61.96422 | 17623 ft | 300 kts | 227° |
| 2026-04-23 19:44 | 57.32466 | 61.93577 | 17242 ft | 298 kts | 227° |
| 2026-04-23 19:44 | 57.31078 | 61.90761 | 16883 ft | 296 kts | 227° |
| 2026-04-23 19:45 | 57.29694 | 61.87959 | 16519 ft | 294 kts | 227° |
| 2026-04-23 19:45 | 57.28317 | 61.85179 | 16181 ft | 292 kts | 227° |
| 2026-04-23 19:45 | 57.26951 | 61.82420 | 15833 ft | 291 kts | 227° |
| 2026-04-23 19:45 | 57.25590 | 61.79664 | 15484 ft | 290 kts | 228° |
| 2026-04-23 19:46 | 57.24233 | 61.76921 | 15145 ft | 288 kts | 228° |
| 2026-04-23 19:46 | 57.22882 | 61.74196 | 14814 ft | 288 kts | 228° |
| 2026-04-23 19:46 | 57.21530 | 61.71474 | 14470 ft | 287 kts | 228° |
| 2026-04-23 19:46 | 57.20635 | 61.69675 | 14243 ft | 286 kts | 228° |
| 2026-04-23 19:47 | 57.19289 | 61.66975 | 13903 ft | 286 kts | 228° |
| 2026-04-23 19:47 | 57.17942 | 61.64277 | 13564 ft | 286 kts | 228° |
| 2026-04-23 19:47 | 57.16597 | 61.61584 | 13204 ft | 285 kts | 228° |
| 2026-04-23 19:47 | 57.15258 | 61.58899 | 12850 ft | 283 kts | 228° |
| 2026-04-23 19:48 | 57.13497 | 61.55379 | 12392 ft | 281 kts | 228° |
| 2026-04-23 19:48 | 57.12604 | 61.53597 | 12154 ft | 280 kts | 228° |
| 2026-04-23 19:48 | 57.11286 | 61.50969 | 11817 ft | 279 kts | 228° |
| 2026-04-23 19:48 | 57.09974 | 61.48358 | 11477 ft | 277 kts | 228° |
| 2026-04-23 19:49 | 57.08667 | 61.45761 | 11125 ft | 276 kts | 228° |
| 2026-04-23 19:49 | 57.07368 | 61.43176 | 10777 ft | 275 kts | 228° |
| 2026-04-23 19:49 | 57.06091 | 61.40631 | 10437 ft | 274 kts | 228° |
| 2026-04-23 19:49 | 57.04798 | 61.38064 | 10076 ft | 273 kts | 228° |
| 2026-04-23 19:50 | 57.03509 | 61.35505 | 9719 ft | 272 kts | 228° |
| 2026-04-23 19:50 | 57.02222 | 61.32955 | 9341 ft | 272 kts | 228° |
| 2026-04-23 19:50 | 57.00938 | 61.30418 | 8960 ft | 271 kts | 228° |
| 2026-04-23 19:50 | 56.99661 | 61.27906 | 8595 ft | 268 kts | 228° |
| 2026-04-23 19:51 | 56.98390 | 61.25408 | 8214 ft | 267 kts | 228° |
| 2026-04-23 19:51 | 56.97132 | 61.22932 | 7841 ft | 265 kts | 228° |
| 2026-04-23 19:51 | 56.95879 | 61.20466 | 7460 ft | 263 kts | 229° |
| 2026-04-23 19:51 | 56.94591 | 61.18093 | 7057 ft | 263 kts | 220° |
| 2026-04-23 19:52 | 56.93024 | 61.16435 | 6659 ft | 265 kts | 202° |
| 2026-04-23 19:52 | 56.91236 | 61.15562 | 6242 ft | 266 kts | 195° |
| 2026-04-23 19:52 | 56.89433 | 61.14798 | 5808 ft | 266 kts | 195° |
| 2026-04-23 19:52 | 56.87632 | 61.14033 | 5373 ft | 265 kts | 195° |
| 2026-04-23 19:53 | 56.85832 | 61.13266 | 4947 ft | 264 kts | 195° |
| 2026-04-23 19:53 | 56.84043 | 61.12514 | 4514 ft | 263 kts | 194° |
| 2026-04-23 19:53 | 56.82266 | 61.11905 | 4261 ft | 256 kts | 193° |
| 2026-04-23 19:53 | 56.80534 | 61.11392 | 4004 ft | 247 kts | 192° |
| 2026-04-23 19:54 | 56.78892 | 61.10933 | 3952 ft | 231 kts | 192° |
| 2026-04-23 19:54 | 56.77341 | 61.10500 | 3838 ft | 220 kts | 193° |
| 2026-04-23 19:54 | 56.75874 | 61.09988 | 3647 ft | 213 kts | 205° |
| 2026-04-23 19:54 | 56.74759 | 61.08398 | 3432 ft | 198 kts | 241° |
| 2026-04-23 19:55 | 56.74401 | 61.06103 | 3241 ft | 182 kts | 270° |
| 2026-04-23 19:55 | 56.74416 | 61.03910 | 3061 ft | 165 kts | 270° |
| 2026-04-23 19:55 | 56.74419 | 61.01936 | 2873 ft | 151 kts | 270° |
| 2026-04-23 19:55 | 56.74419 | 61.00126 | 2747 ft | 137 kts | 270° |
| 2026-04-23 19:56 | 56.74423 | 60.98404 | 2675 ft | 134 kts | 270° |
| 2026-04-23 19:56 | 56.74428 | 60.96725 | 2516 ft | 131 kts | 269° |
| 2026-04-23 19:56 | 56.74433 | 60.95068 | 2343 ft | 131 kts | 269° |
| 2026-04-23 19:56 | 56.74439 | 60.93418 | 2153 ft | 130 kts | 269° |
| 2026-04-23 19:57 | 56.74444 | 60.91775 | 1961 ft | 130 kts | 269° |
| 2026-04-23 19:57 | 56.74450 | 60.90127 | 1748 ft | 131 kts | 268° |
| 2026-04-23 19:57 | 56.74456 | 60.88451 | 1499 ft | 132 kts | 269° |
| 2026-04-23 19:57 | 56.74462 | 60.86786 | 1281 ft | 132 kts | 268° |
| 2026-04-23 19:58 | 56.74464 | 60.85116 | 1103 ft | 132 kts | 268° |
| 2026-04-23 19:58 | 56.74471 | 60.83425 | 918 ft | 134 kts | 269° |
| 2026-04-23 19:58 | 56.74470 | 60.81755 | 778 ft | 122 kts | 269° |
| 2026-04-23 19:58 | 56.74476 | 60.80504 | 775 ft | 74 kts | 270° |
| 2026-04-23 19:59 | 56.74477 | 60.79775 | 773 ft | 51 kts | 270° |
| 2026-04-23 19:59 | 56.74478 | 60.79307 | 771 ft | 19 kts | 277° |
| 2026-04-23 19:59 | 56.74554 | 60.79189 | 773 ft | 11 kts | 352° |
| 2026-04-23 19:59 | 56.74607 | 60.79188 | 774 ft | 0 kts | 360° |
| 2026-04-23 20:00 | 56.74664 | 60.79187 | 775 ft | 11 kts | 359° |
| 2026-04-23 20:01 | 56.74760 | 60.79188 | 775 ft | 19 kts | 359° |
| 2026-04-23 20:01 | 56.74846 | 60.79203 | 775 ft | 8 kts | 35° |
| 2026-04-23 20:01 | 56.74858 | 60.79287 | 775 ft | 6 kts | 90° |
| 2026-04-23 20:01 | 56.74858 | 60.79361 | 775 ft | 5 kts | 90° |
| 2026-04-23 20:02 | 56.74857 | 60.79471 | 775 ft | 15 kts | 90° |
| 2026-04-23 20:02 | 56.74857 | 60.79693 | 775 ft | 18 kts | 90° |
| 2026-04-23 20:02 | 56.74853 | 60.79934 | 775 ft | 15 kts | 92° |
| 2026-04-23 20:02 | 56.74885 | 60.80044 | 775 ft | 9 kts | 4° |
| 2026-04-23 20:03 | 56.74930 | 60.80045 | 775 ft | 0 kts | 2° |
| 2026-04-23 20:03 | 56.74934 | 60.80045 | 775 ft | 1 kts | 360° |
| 2026-04-23 20:03 | 56.74935 | 60.80045 | 775 ft | 0 kts | 360° |